Time;durP1;ratioP1;P1;durP2;ratioP2;P2;SDS_P1;SDS_P2;PMS_P1;PMS_P2;Temp;Humidity;BMP_temperature;BMP_pressure;BME280_temperature;BME280_humidity;BME280_pressure;Samples;Min_cycle;Max_cycle;Signal;HPM_P1;HPM_P2
2023/10/06 00:00:47;;;;;;;10.40;2.10;;;;;;;13.17;100.00;100225.08;104676;1260;60573;-53
2023/10/06 00:03:16;;;;;;;3.10;1.60;;;;;;;13.17;100.00;100227.58;104927;1254;73854;-49
2023/10/06 00:05:44;;;;;;;5.80;1.90;;;;;;;13.17;100.00;100231.73;105344;1254;66326;-53
2023/10/06 00:08:15;;;;;;;6.50;2.10;;;;;;;13.16;100.00;100226.36;104980;1262;71789;-50
2023/10/06 00:10:54;;;;;;;5.50;1.50;;;;;;;13.16;100.00;100227.83;105215;1254;60361;-49
2023/10/06 00:13:51;;;;;;;2.40;1.80;;;;;;;13.14;100.00;100229.88;104994;1254;60684;-51
2023/10/06 00:16:12;;;;;;;5.10;2.00;;;;;;;13.13;100.00;100225.24;105095;1254;73870;-50
2023/10/06 00:18:40;;;;;;;7.00;1.60;;;;;;;13.11;100.00;100220.25;104819;1257;67337;-51
2023/10/06 00:21:15;;;;;;;6.90;1.40;;;;;;;13.10;100.00;100218.90;104755;1262;202768;-52
2023/10/06 00:24:37;;;;;;;4.20;1.70;;;;;;;13.11;100.00;100233.27;102343;1290;601263;-52
2023/10/06 00:27:10;;;;;;;4.70;1.70;;;;;;;13.09;100.00;100228.14;104217;1269;59524;-52
2023/10/06 00:29:39;;;;;;;3.70;1.60;;;;;;;13.09;100.00;100227.44;104350;1263;60107;-53
2023/10/06 00:32:24;;;;;;;5.00;1.50;;;;;;;13.08;100.00;100231.06;104307;1266;72319;-50
2023/10/06 00:35:11;;;;;;;4.20;1.40;;;;;;;13.09;100.00;100229.60;104919;1253;66904;-52
2023/10/06 00:37:39;;;;;;;4.30;1.50;;;;;;;13.09;100.00;100231.40;105977;1253;165065;-52
2023/10/06 00:40:20;;;;;;;3.70;1.60;;;;;;;13.09;100.00;100230.34;104970;1259;60478;-49
2023/10/06 00:42:51;;;;;;;4.80;2.10;;;;;;;13.09;100.00;100235.69;106400;1256;59125;-51
2023/10/06 00:45:19;;;;;;;4.50;1.50;;;;;;;13.10;100.00;100234.73;104881;1256;71030;-51
2023/10/06 00:47:46;;;;;;;6.50;1.70;;;;;;;13.10;100.00;100236.73;104631;1253;65747;-53
2023/10/06 00:50:15;;;;;;;5.50;1.90;;;;;;;13.12;100.00;100239.52;104854;1253;71709;-51
2023/10/06 00:52:43;;;;;;;2.80;1.30;;;;;;;13.13;100.00;100232.79;104942;1253;60167;-53
2023/10/06 00:55:12;;;;;;;6.40;1.60;;;;;;;13.16;100.00;100229.25;104646;1258;60162;-53
2023/10/06 00:57:40;;;;;;;4.60;2.10;;;;;;;13.18;100.00;100224.11;104946;1257;72026;-52
2023/10/06 01:00:16;;;;;;;4.70;1.50;;;;;;;13.20;100.00;100227.23;105222;1258;66001;-50
2023/10/06 01:02:44;;;;;;;3.90;1.50;;;;;;;13.21;100.00;100231.48;108984;1253;72012;-51
2023/10/06 01:05:15;;;;;;;3.60;1.30;;;;;;;13.21;100.00;100232.41;107119;1256;59656;-52
2023/10/06 01:07:46;;;;;;;5.50;1.10;;;;;;;13.20;100.00;100228.33;105439;1253;60061;-51
2023/10/06 01:10:27;;;;;;;2.80;1.40;;;;;;;13.18;100.00;100228.41;104992;1251;71889;-52
2023/10/06 01:12:56;;;;;;;5.30;1.20;;;;;;;13.16;100.00;100229.98;105204;1253;66302;-52
2023/10/06 01:15:29;;;;;;;3.10;1.40;;;;;;;13.14;100.00;100235.48;105100;1256;72741;-53
2023/10/06 01:17:58;;;;;;;2.80;1.10;;;;;;;13.11;100.00;100233.44;104901;1253;59710;-49
2023/10/06 01:20:40;;;;;;;4.20;1.90;;;;;;;13.08;100.00;100229.48;105076;1254;59674;-53
2023/10/06 01:23:15;;;;;;;3.50;1.40;;;;;;;13.05;100.00;100232.11;104931;1253;71865;-53
2023/10/06 01:25:46;;;;;;;5.20;1.40;;;;;;;13.03;100.00;100231.69;104897;1258;66990;-52
2023/10/06 01:28:13;;;;;;;4.70;1.40;;;;;;;13.00;100.00;100225.92;105194;1254;71487;-54
2023/10/06 01:30:41;;;;;;;6.10;1.30;;;;;;;12.98;100.00;100229.24;104632;1256;60456;-53
2023/10/06 01:33:09;;;;;;;3.80;1.60;;;;;;;12.97;100.00;100230.56;104894;1258;60016;-54
2023/10/06 01:35:42;;;;;;;5.00;1.40;;;;;;;12.96;100.00;100232.97;104972;1259;73133;-53
2023/10/06 01:38:22;;;;;;;2.80;1.10;;;;;;;12.95;100.00;100228.84;109014;1253;66327;-55
2023/10/06 01:40:53;;;;;;;7.40;1.30;;;;;;;12.95;100.00;100229.77;108948;1252;72201;-54
2023/10/06 01:43:29;;;;;;;3.00;1.10;;;;;;;12.94;100.00;100231.77;107822;1259;60631;-53
2023/10/06 01:45:59;;;;;;;2.90;1.00;;;;;;;12.95;100.00;100230.30;104962;1259;59677;-55
2023/10/06 01:48:31;;;;;;;2.80;1.30;;;;;;;12.93;100.00;100233.06;109049;1253;72245;-55
2023/10/06 01:50:58;;;;;;;3.40;1.50;;;;;;;12.92;100.00;100229.17;109006;1253;66934;-51
2023/10/06 01:53:32;;;;;;;2.90;1.50;;;;;;;12.92;100.00;100229.96;108991;1252;73411;-53
2023/10/06 01:56:06;;;;;;;4.60;1.00;;;;;;;12.89;100.00;100231.66;108932;1253;60078;-53
2023/10/06 01:58:35;;;;;;;4.80;1.30;;;;;;;12.86;100.00;100229.08;108924;1253;60059;-53
2023/10/06 02:01:05;;;;;;;4.30;0.90;;;;;;;12.82;100.00;100232.76;109024;1253;72982;-53
2023/10/06 02:03:38;;;;;;;3.90;1.00;;;;;;;12.78;100.00;100240.12;109014;1257;67714;-54
2023/10/06 02:06:12;;;;;;;6.60;1.80;;;;;;;12.74;100.00;100237.14;109155;1253;74909;-53
2023/10/06 02:08:42;;;;;;;6.40;1.20;;;;;;;12.70;100.00;100242.52;108911;1254;58881;-52
2023/10/06 02:11:12;;;;;;;1.80;1.10;;;;;;;12.67;100.00;100242.84;109010;1252;58655;-52
2023/10/06 02:13:39;;;;;;;2.50;1.20;;;;;;;12.65;100.00;100243.70;108878;1253;74458;-53
2023/10/06 02:16:08;;;;;;;3.10;0.90;;;;;;;12.62;100.00;100251.38;108898;1253;65837;-53
2023/10/06 02:18:36;;;;;;;3.20;1.10;;;;;;;12.61;100.00;100257.55;108897;1252;72712;-51
2023/10/06 02:21:12;;;;;;;3.80;1.20;;;;;;;12.61;100.00;100259.20;108967;1253;58827;-53
2023/10/06 02:23:41;;;;;;;3.60;1.00;;;;;;;12.60;100.00;100261.55;106989;1254;60418;-50
2023/10/06 02:26:12;;;;;;;2.20;1.00;;;;;;;12.60;100.00;100263.37;106206;1254;72033;-51
2023/10/06 02:28:44;;;;;;;5.00;1.20;;;;;;;12.60;100.00;100272.03;108866;1254;67746;-52
2023/10/06 02:31:12;;;;;;;3.50;1.20;;;;;;;12.60;100.00;100271.83;107996;1258;73191;-53
2023/10/06 02:33:40;;;;;;;2.60;1.10;;;;;;;12.60;100.00;100272.54;105576;1256;59702;-52
2023/10/06 02:36:41;;;;;;;2.90;1.00;;;;;;;12.60;100.00;100276.52;105260;1258;59555;-51
2023/10/06 02:39:05;;;;;;;2.20;0.90;;;;;;;12.59;100.00;100275.85;104735;1258;73717;-50
2023/10/06 02:41:34;;;;;;;4.40;1.00;;;;;;;12.57;100.00;100273.05;104876;1256;68051;-51
2023/10/06 02:44:14;;;;;;;2.60;1.30;;;;;;;12.55;100.00;100274.95;105380;1258;71445;-50
2023/10/06 02:46:44;;;;;;;4.70;1.20;;;;;;;12.53;100.00;100273.61;105001;1262;60515;-52
2023/10/06 02:49:12;;;;;;;2.70;1.00;;;;;;;12.49;100.00;100272.90;104917;1256;60569;-51
2023/10/06 02:51:48;;;;;;;1.80;1.00;;;;;;;12.47;100.00;100274.27;104884;1254;72966;-51
2023/10/06 02:56:46;;;;;;;3.60;1.10;;;;;;;12.42;100.00;100267.29;104863;1253;73193;-51
2023/10/06 02:59:26;;;;;;;3.10;0.90;;;;;;;12.40;100.00;100269.75;107336;1253;60518;-51
2023/10/06 03:01:57;;;;;;;3.30;1.20;;;;;;;12.36;100.00;100262.52;106000;1255;60287;-51
2023/10/06 03:04:26;;;;;;;3.30;1.20;;;;;;;12.32;100.00;100262.02;105615;1256;71806;-49
2023/10/06 03:06:57;;;;;;;3.80;1.10;;;;;;;12.30;100.00;100255.50;104952;1254;65852;-51
2023/10/06 03:09:29;;;;;;;2.00;1.10;;;;;;;12.27;100.00;100263.70;105292;1257;71466;-53
2023/10/06 03:12:00;;;;;;;3.70;1.10;;;;;;;12.23;100.00;100265.35;104794;1255;59625;-49
2023/10/06 03:14:37;;;;;;;5.60;1.30;;;;;;;12.20;100.00;100260.60;104964;1259;59664;-52
2023/10/06 03:17:08;;;;;;;2.20;1.00;;;;;;;12.16;100.00;100262.05;105382;1258;73128;-52
2023/10/06 03:19:40;;;;;;;3.80;0.90;;;;;;;12.13;100.00;100265.64;105556;1255;67586;-53
2023/10/06 03:22:12;;;;;;;3.30;0.90;;;;;;;12.10;100.00;100263.77;104854;1254;71454;-51
2023/10/06 03:25:00;;;;;;;3.00;1.10;;;;;;;12.06;100.00;100270.27;104857;1256;60488;-52
2023/10/06 03:27:29;;;;;;;1.60;0.80;;;;;;;12.04;100.00;100272.71;105327;1253;62248;-49
2023/10/06 03:30:07;;;;;;;3.10;0.90;;;;;;;12.00;100.00;100271.98;104911;1259;73115;-51
2023/10/06 03:32:39;;;;;;;4.50;1.10;;;;;;;11.96;100.00;100272.69;104812;1260;64791;-50
2023/10/06 03:35:24;;;;;;;2.30;1.10;;;;;;;11.93;100.00;100271.58;104749;1259;72784;-51
2023/10/06 03:37:53;;;;;;;2.00;1.20;;;;;;;11.90;100.00;100271.92;105313;1253;59735;-50
2023/10/06 03:40:30;;;;;;;2.50;0.90;;;;;;;11.85;100.00;100272.47;108943;1253;58826;-52
2023/10/06 03:43:04;;;;;;;1.60;0.80;;;;;;;11.80;100.00;100272.90;104826;1255;72139;-52
2023/10/06 03:45:34;;;;;;;1.70;0.90;;;;;;;11.76;100.00;100277.38;105112;1254;66970;-51
2023/10/06 03:48:13;;;;;;;1.40;0.80;;;;;;;11.73;100.00;100276.23;105493;1261;72739;-51
2023/10/06 03:50:43;;;;;;;2.50;0.80;;;;;;;11.70;100.00;100278.71;104828;1256;60504;-52
2023/10/06 03:53:12;;;;;;;4.10;1.00;;;;;;;11.67;100.00;100274.36;105583;1260;59645;-52
2023/10/06 03:55:41;;;;;;;2.30;0.80;;;;;;;11.65;100.00;100278.58;108921;1258;71840;-52
2023/10/06 03:58:10;;;;;;;3.90;0.90;;;;;;;11.64;100.00;100277.02;107942;1257;67415;-53
2023/10/06 04:00:47;;;;;;;2.10;0.80;;;;;;;11.63;100.00;100278.49;105052;1253;72736;-51
2023/10/06 04:03:17;;;;;;;3.70;0.80;;;;;;;11.62;100.00;100281.94;105151;1259;60483;-52
2023/10/06 04:05:48;;;;;;;2.10;0.90;;;;;;;11.61;100.00;100282.35;105022;1254;59838;-53
2023/10/06 04:08:18;;;;;;;2.30;0.90;;;;;;;11.61;100.00;100279.66;105113;1255;73572;-51
2023/10/06 04:10:53;;;;;;;1.90;0.80;;;;;;;11.61;100.00;100281.25;105136;1253;65778;-51
2023/10/06 04:13:20;;;;;;;5.80;1.00;;;;;;;11.61;100.00;100281.08;107399;1258;73249;-53
2023/10/06 04:15:52;;;;;;;2.90;1.50;;;;;;;11.61;100.00;100282.88;105001;1259;60120;-52
2023/10/06 04:18:22;;;;;;;1.80;0.90;;;;;;;11.60;100.00;100283.83;104909;1253;60127;-50
2023/10/06 04:20:51;;;;;;;2.10;0.90;;;;;;;11.58;100.00;100284.45;106102;1257;72226;-53
2023/10/06 04:23:22;;;;;;;1.10;0.80;;;;;;;11.56;100.00;100288.88;104905;1259;68461;-50
2023/10/06 04:25:54;;;;;;;1.40;0.80;;;;;;;11.53;100.00;100287.17;105527;1256;70696;-50
2023/10/06 04:28:25;;;;;;;3.30;1.60;;;;;;;11.53;100.00;100290.08;105931;1259;60500;-50
2023/10/06 04:30:54;;;;;;;1.10;0.70;;;;;;;11.52;100.00;100290.29;106591;1258;59850;-52
2023/10/06 04:33:25;;;;;;;3.90;0.70;;;;;;;11.53;100.00;100294.40;105134;1254;73435;-50
2023/10/06 04:35:56;;;;;;;3.90;0.80;;;;;;;11.54;100.00;100295.45;105059;1257;65808;-52
2023/10/06 04:38:23;;;;;;;1.70;0.90;;;;;;;11.54;100.00;100299.20;104493;1259;72293;-50
2023/10/06 04:40:56;;;;;;;2.10;0.90;;;;;;;11.54;100.00;100295.77;104474;1253;60531;-53
2023/10/06 04:43:24;;;;;;;3.10;0.90;;;;;;;11.55;100.00;100297.71;104877;1254;60573;-51
2023/10/06 04:45:51;;;;;;;2.40;0.90;;;;;;;11.57;100.00;100305.94;104811;1259;72859;-51
2023/10/06 04:48:18;;;;;;;1.70;0.70;;;;;;;11.57;100.00;100303.73;104867;1255;65796;-50
2023/10/06 04:50:46;;;;;;;2.10;0.70;;;;;;;11.57;100.00;100303.76;105030;1259;73172;-50
2023/10/06 04:53:16;;;;;;;3.00;0.70;;;;;;;11.55;100.00;100307.42;104878;1259;60533;-50
2023/10/06 04:55:44;;;;;;;4.70;0.90;;;;;;;11.52;100.00;100309.34;104840;1253;60451;-51
2023/10/06 04:58:14;;;;;;;2.70;0.70;;;;;;;11.49;100.00;100312.71;108965;1253;73909;-52
2023/10/06 05:00:42;;;;;;;2.70;0.80;;;;;;;11.46;100.00;100317.52;108951;1253;66303;-54
2023/10/06 05:03:11;;;;;;;1.40;0.80;;;;;;;11.44;100.00;100318.16;108958;1255;74667;-53
2023/10/06 05:05:40;;;;;;;1.50;0.60;;;;;;;11.43;100.00;100321.98;105706;1259;60572;-52
2023/10/06 05:08:14;;;;;;;1.80;0.70;;;;;;;11.42;100.00;100327.21;109007;1253;60042;-53
2023/10/06 05:10:42;;;;;;;1.40;0.60;;;;;;;11.43;100.00;100327.88;106366;1259;76000;-52
2023/10/06 05:13:10;;;;;;;3.40;0.50;;;;;;;11.49;100.00;100328.37;109033;1255;66018;-52
2023/10/06 05:15:41;;;;;;;3.00;0.60;;;;;;;11.57;100.00;100328.36;109104;1257;72167;-52
2023/10/06 05:18:15;;;;;;;1.20;0.60;;;;;;;11.67;100.00;100324.86;109041;1254;61056;-53
2023/10/06 05:20:43;;;;;;;1.10;0.60;;;;;;;11.79;100.00;100325.08;109025;1253;58805;-53
2023/10/06 05:23:14;;;;;;;4.90;0.70;;;;;;;11.90;100.00;100327.67;109012;1255;73044;-51
2023/10/06 05:25:44;;;;;;;2.20;0.60;;;;;;;11.99;100.00;100334.80;107589;1260;67005;-52
2023/10/06 05:28:16;;;;;;;2.60;0.70;;;;;;;12.09;100.00;100333.44;106309;1258;72663;-51
2023/10/06 05:30:44;;;;;;;6.50;0.80;;;;;;;12.19;100.00;100335.86;104753;1259;60470;-51
2023/10/06 05:33:14;;;;;;;1.60;0.90;;;;;;;12.28;100.00;100339.23;104981;1258;60342;-51
2023/10/06 05:35:43;;;;;;;9.10;0.70;;;;;;;12.36;100.00;100337.59;105823;1259;73973;-51
2023/10/06 05:38:14;;;;;;;1.00;0.60;;;;;;;12.44;100.00;100348.00;104824;1258;66928;-51
2023/10/06 05:40:46;;;;;;;2.20;0.60;;;;;;;12.50;100.00;100349.90;104728;1254;71446;-52
2023/10/06 05:43:16;;;;;;;3.20;0.70;;;;;;;12.55;100.00;100352.92;104693;1258;62021;-51
2023/10/06 05:45:45;;;;;;;2.60;0.50;;;;;;;12.58;100.00;100356.02;104851;1256;60536;-52
2023/10/06 05:48:12;;;;;;;2.10;0.80;;;;;;;12.59;100.00;100357.25;105993;1254;74891;-51
2023/10/06 05:50:43;;;;;;;2.90;0.50;;;;;;;12.58;100.00;100360.16;104753;1254;66422;-51
2023/10/06 05:53:19;;;;;;;1.20;0.60;;;;;;;12.56;100.00;100363.67;106147;1254;72688;-52
2023/10/06 05:55:49;;;;;;;2.60;0.60;;;;;;;12.54;100.00;100369.91;105113;1261;60451;-50
2023/10/06 05:58:21;;;;;;;0.90;0.40;;;;;;;12.50;100.00;100370.20;105439;1259;60616;-50
2023/10/06 06:00:50;;;;;;;3.40;0.60;;;;;;;12.52;100.00;100374.65;105181;1254;72590;-53
2023/10/06 06:03:20;;;;;;;2.00;0.50;;;;;;;12.51;100.00;100378.27;104891;1259;65675;-50
2023/10/06 06:05:57;;;;;;;0.60;0.40;;;;;;;12.50;100.00;100385.86;104917;1258;70764;-53
2023/10/06 06:08:25;;;;;;;2.00;0.50;;;;;;;12.53;100.00;100389.92;106064;1258;62728;-52
2023/10/06 06:10:52;;;;;;;0.60;0.40;;;;;;;12.55;100.00;100393.59;104872;1260;60391;-52
2023/10/06 06:13:19;;;;;;;1.70;0.50;;;;;;;12.59;100.00;100388.54;105994;1257;72633;-53
2023/10/06 06:15:49;;;;;;;0.70;0.40;;;;;;;12.63;100.00;100386.94;104758;1260;65712;-54
2023/10/06 06:18:16;;;;;;;5.60;0.40;;;;;;;12.66;100.00;100393.47;104872;1265;72677;-54
2023/10/06 06:20:45;;;;;;;3.80;0.30;;;;;;;12.67;100.00;100396.11;104791;1254;60438;-52
2023/10/06 06:23:15;;;;;;;1.10;0.30;;;;;;;12.67;100.00;100393.42;105193;1259;60360;-52
2023/10/06 06:25:44;;;;;;;2.70;0.40;;;;;;;12.67;100.00;100407.10;104980;1258;73842;-52
2023/10/06 06:28:12;;;;;;;1.00;0.30;;;;;;;12.64;100.00;100410.67;105126;1257;66904;-53
2023/10/06 06:30:39;;;;;;;5.70;0.40;;;;;;;12.59;100.00;100409.97;104849;1258;72440;-52
2023/10/06 06:33:22;;;;;;;10.00;0.30;;;;;;;12.56;100.00;100416.25;105145;1259;60505;-51
2023/10/06 06:35:50;;;;;;;3.70;0.30;;;;;;;12.53;100.00;100418.54;104792;1259;60661;-51
2023/10/06 06:38:18;;;;;;;4.60;0.40;;;;;;;12.51;100.00;100426.34;104766;1257;74152;-51
2023/10/06 06:40:46;;;;;;;7.30;0.40;;;;;;;12.51;100.00;100424.35;106014;1256;67171;-52
2023/10/06 06:43:13;;;;;;;7.10;0.30;;;;;;;12.51;100.00;100418.07;105002;1257;72701;-53
2023/10/06 06:45:41;;;;;;;4.10;0.20;;;;;;;12.52;100.00;100421.63;104658;1254;60584;-51
2023/10/06 06:48:13;;;;;;;4.70;0.60;;;;;;;12.53;100.00;100419.61;105225;1253;60477;-53
2023/10/06 06:50:44;;;;;;;0.50;0.20;;;;;;;12.53;100.00;100428.44;105509;1256;73872;-54
2023/10/06 06:53:12;;;;;;;1.00;0.20;;;;;;;12.53;100.00;100432.05;104882;1260;66936;-52
2023/10/06 06:55:40;;;;;;;0.70;0.20;;;;;;;12.54;100.00;100434.70;105077;1259;71617;-53
2023/10/06 06:58:11;;;;;;;0.50;0.20;;;;;;;12.56;100.00;100431.91;105159;1258;60619;-54
2023/10/06 07:00:42;;;;;;;2.80;0.20;;;;;;;12.60;100.00;100432.63;106667;1257;60532;-52
2023/10/06 07:03:10;;;;;;;0.60;0.20;;;;;;;12.64;100.00;100427.02;104923;1253;73895;-51
2023/10/06 07:05:39;;;;;;;1.90;0.20;;;;;;;12.70;100.00;100437.92;105049;1261;66678;-52
2023/10/06 07:08:07;;;;;;;1.90;0.20;;;;;;;12.74;100.00;100441.69;105736;1259;71470;-51
2023/10/06 07:10:38;;;;;;;0.80;0.30;;;;;;;12.80;100.00;100441.92;105128;1259;60549;-52
2023/10/06 07:13:06;;;;;;;2.40;0.20;;;;;;;12.88;100.00;100442.12;104887;1257;60454;-54
2023/10/06 07:15:34;;;;;;;1.40;0.30;;;;;;;12.94;100.00;100445.45;105050;1254;72696;-51
2023/10/06 07:18:01;;;;;;;0.70;0.30;;;;;;;12.99;100.00;100443.59;104714;1260;67283;-51
2023/10/06 07:20:30;;;;;;;5.00;0.20;;;;;;;13.04;100.00;100442.27;106076;1259;72688;-51
2023/10/06 07:23:00;;;;;;;2.10;0.20;;;;;;;13.08;100.00;100445.67;104890;1259;60447;-51
2023/10/06 07:25:28;;;;;;;1.40;0.30;;;;;;;13.12;100.00;100436.10;104877;1268;60452;-53
2023/10/06 07:27:57;;;;;;;0.50;0.20;;;;;;;13.14;100.00;100439.48;105590;1254;73940;-52
2023/10/06 07:30:29;;;;;;;0.30;0.20;;;;;;;13.14;100.00;100436.20;104985;1260;66798;-52
2023/10/06 07:32:56;;;;;;;0.40;0.20;;;;;;;13.15;100.00;100442.64;104847;1260;72779;-51
2023/10/06 07:35:47;;;;;;;0.40;0.30;;;;;;;13.16;100.00;100446.95;105390;1255;60541;-54
2023/10/06 07:38:15;;;;;;;1.80;0.30;;;;;;;13.09;100.00;100448.68;105125;1259;60605;-53
2023/10/06 07:40:42;;;;;;;0.80;0.20;;;;;;;13.01;100.00;100451.41;105474;1258;73995;-52
2023/10/06 07:43:10;;;;;;;4.50;0.30;;;;;;;12.95;100.00;100455.15;104923;1254;66779;-52
2023/10/06 07:45:38;;;;;;;2.70;0.30;;;;;;;12.94;100.00;100457.84;105552;1257;75273;-51
2023/10/06 07:48:06;;;;;;;2.80;0.30;;;;;;;12.98;100.00;100463.62;104918;1254;60489;-53
2023/10/06 07:50:34;;;;;;;2.80;0.40;;;;;;;13.03;100.00;100464.80;104704;1259;60683;-52
2023/10/06 07:53:02;;;;;;;2.60;0.30;;;;;;;13.09;100.00;100460.04;105692;1258;73816;-53
2023/10/06 07:55:31;;;;;;;1.00;0.30;;;;;;;13.15;100.00;100465.37;104831;1254;65675;-52
2023/10/06 07:58:00;;;;;;;3.10;0.30;;;;;;;13.21;100.00;100466.52;104898;1257;72926;-52
2023/10/06 08:00:29;;;;;;;0.50;0.20;;;;;;;13.28;100.00;100469.76;108946;1254;58865;-52
2023/10/06 08:02:57;;;;;;;3.30;0.20;;;;;;;13.33;100.00;100476.24;109055;1254;60086;-52
2023/10/06 08:05:25;;;;;;;0.50;0.20;;;;;;;13.34;100.00;100472.91;108975;1254;75987;-55
2023/10/06 08:07:58;;;;;;;5.00;0.20;;;;;;;13.35;100.00;100477.38;109024;1257;65995;-54
2023/10/06 08:10:29;;;;;;;5.00;0.20;;;;;;;13.35;100.00;100481.89;106365;1257;72655;-54
2023/10/06 08:13:01;;;;;;;1.30;0.30;;;;;;;13.37;100.00;100474.04;104960;1254;60526;-53
2023/10/06 08:15:32;;;;;;;2.90;0.20;;;;;;;13.41;100.00;100475.13;107777;1254;60528;-50
2023/10/06 08:18:00;;;;;;;3.40;0.20;;;;;;;13.46;100.00;100472.89;108972;1254;72612;-54
2023/10/06 08:20:29;;;;;;;6.80;0.30;;;;;;;13.53;100.00;100476.51;108997;1254;65781;-54
2023/10/06 08:22:58;;;;;;;0.70;0.20;;;;;;;13.57;100.00;100480.07;109002;1254;73979;-54
2023/10/06 08:25:25;;;;;;;0.80;0.20;;;;;;;13.56;100.00;100479.02;108379;1254;60094;-53
2023/10/06 08:27:54;;;;;;;4.50;0.20;;;;;;;13.57;100.00;100481.19;104851;1254;60600;-54
2023/10/06 08:30:22;;;;;;;0.50;0.20;;;;;;;13.62;100.00;100474.27;104792;1254;72674;-55
2023/10/06 08:32:52;;;;;;;4.80;0.30;;;;;;;13.69;100.00;100478.58;104747;1258;68139;-52
2023/10/06 08:35:20;;;;;;;6.80;0.20;;;;;;;13.77;100.00;100489.59;108945;1258;72700;-53
2023/10/06 08:37:49;;;;;;;6.50;0.40;;;;;;;13.82;100.00;100480.67;108913;1254;59108;-53
2023/10/06 08:40:19;;;;;;;4.10;0.30;;;;;;;13.84;100.00;100478.37;105566;1257;60386;-53
2023/10/06 08:42:53;;;;;;;1.10;0.20;;;;;;;13.88;100.00;100481.95;104976;1255;73857;-53
2023/10/06 08:45:24;;;;;;;1.20;0.30;;;;;;;13.91;100.00;100477.86;106409;1254;67711;-52
2023/10/06 08:47:58;;;;;;;5.00;0.30;;;;;;;13.94;100.00;100479.32;105721;1254;71495;-53
2023/10/06 08:50:31;;;;;;;2.80;0.30;;;;;;;13.96;100.00;100476.86;104885;1252;60470;-54
2023/10/06 08:53:00;;;;;;;2.10;0.30;;;;;;;13.96;100.00;100483.54;105214;1254;61014;-53
2023/10/06 08:55:29;;;;;;;5.20;0.20;;;;;;;13.92;100.00;100478.15;105662;1254;72657;-51
2023/10/06 08:57:59;;;;;;;2.90;0.30;;;;;;;13.91;100.00;100481.63;104956;1254;67020;-53
2023/10/06 09:00:34;;;;;;;2.70;0.20;;;;;;;13.96;100.00;100488.79;104840;1257;72765;-53
2023/10/06 09:03:08;;;;;;;1.30;0.20;;;;;;;14.03;100.00;100486.63;105032;1259;60551;-51
2023/10/06 09:05:41;;;;;;;1.80;0.20;;;;;;;14.08;100.00;100484.92;104751;1254;61023;-52
2023/10/06 09:08:10;;;;;;;0.90;0.30;;;;;;;14.12;100.00;100475.34;104967;1259;74406;-51
2023/10/06 09:10:51;;;;;;;3.80;0.20;;;;;;;14.16;100.00;100483.79;105434;1255;66931;-52
2023/10/06 09:13:19;;;;;;;5.20;0.20;;;;;;;14.21;100.00;100484.96;105383;1257;71498;-54
2023/10/06 09:16:02;;;;;;;1.70;0.30;;;;;;;14.27;100.00;100494.21;105639;1254;60526;-54
2023/10/06 09:18:34;;;;;;;0.50;0.20;;;;;;;14.33;100.00;100493.55;105016;1254;60467;-53
2023/10/06 09:21:21;;;;;;;1.00;0.10;;;;;;;14.32;100.00;100497.73;105089;1257;74384;-51
2023/10/06 09:23:49;;;;;;;1.40;0.20;;;;;;;14.31;100.00;100496.33;104931;1258;65886;-53
2023/10/06 09:26:29;;;;;;;1.60;0.20;;;;;;;14.31;100.00;100496.02;105257;1254;71441;-50
2023/10/06 09:29:01;;;;;;;0.80;0.20;;;;;;;14.33;100.00;100496.60;104814;1259;60467;-52
2023/10/06 09:31:44;;;;;;;1.60;0.20;;;;;;;14.37;100.00;100507.77;105089;1259;60421;-52
2023/10/06 09:34:23;;;;;;;6.00;0.30;;;;;;;14.38;100.00;100511.35;105098;1254;74216;-54
2023/10/06 09:36:51;;;;;;;0.40;0.10;;;;;;;14.35;100.00;100505.70;104598;1255;66372;-52
2023/10/06 09:39:32;;;;;;;0.30;0.20;;;;;;;14.34;100.00;100505.02;104672;1254;72720;-53
2023/10/06 09:42:00;;;;;;;4.10;0.20;;;;;;;14.37;100.00;100504.71;105137;1254;60436;-52
2023/10/06 09:44:28;;;;;;;3.50;0.20;;;;;;;14.41;100.00;100502.92;104814;1254;60532;-51
2023/10/06 09:46:57;;;;;;;3.20;0.20;;;;;;;14.45;100.00;100507.56;104689;1259;73973;-51
2023/10/06 09:49:25;;;;;;;1.20;0.20;;;;;;;14.49;100.00;100504.85;105565;1260;65829;-53
2023/10/06 09:51:53;;;;;;;3.70;0.20;;;;;;;14.50;100.00;100509.84;104739;1256;71439;-54
2023/10/06 09:54:20;;;;;;;2.40;0.20;;;;;;;14.53;100.00;100514.73;104809;1258;60527;-52
2023/10/06 09:56:48;;;;;;;3.10;0.50;;;;;;;14.58;100.00;100513.23;104547;1260;60381;-53
2023/10/06 09:59:15;;;;;;;1.70;0.20;;;;;;;14.57;100.00;100509.83;105035;1254;74329;-51
2023/10/06 10:01:45;;;;;;;0.60;0.20;;;;;;;14.52;100.00;100511.38;105974;1254;66303;-53
2023/10/06 10:04:14;;;;;;;0.70;0.20;;;;;;;14.52;100.00;100514.42;104836;1253;71420;-53
2023/10/06 10:06:44;;;;;;;0.60;0.20;;;;;;;14.56;100.00;100517.83;104875;1254;60635;-54
2023/10/06 10:09:16;;;;;;;2.10;0.30;;;;;;;14.62;100.00;100524.91;104892;1260;60411;-54
2023/10/06 10:12:31;;;;;;;1.90;0.20;;;;;;;14.69;100.00;100522.20;105207;1255;72658;-53
2023/10/06 10:15:15;;;;;;;2.70;0.30;;;;;;;14.71;100.00;100521.73;104570;1259;67222;-53
2023/10/06 10:17:46;;;;;;;;;;;;;;;14.66;100.00;100518.53;105927;1260;71459;-52
2023/10/06 10:20:15;;;;;;;0.60;0.20;;;;;;;14.64;100.00;100524.60;104742;1259;60665;-54
2023/10/06 10:22:42;;;;;;;1.70;0.20;;;;;;;14.66;100.00;100524.17;105858;1254;60562;-54
2023/10/06 10:25:13;;;;;;;0.40;0.10;;;;;;;14.68;100.00;100517.22;104939;1254;73799;-53
2023/10/06 10:27:43;;;;;;;1.20;0.20;;;;;;;14.67;100.00;100527.17;108973;1253;66251;-53
2023/10/06 10:30:12;;;;;;;2.00;0.20;;;;;;;14.66;100.00;100528.68;108847;1254;72720;-53
2023/10/06 10:32:41;;;;;;;1.10;0.20;;;;;;;14.64;100.00;100530.75;108990;1253;59095;-54
2023/10/06 10:35:18;;;;;;;2.30;0.10;;;;;;;14.64;100.00;100526.27;109017;1257;60072;-54
2023/10/06 10:38:06;;;;;;;4.60;0.20;;;;;;;14.63;100.00;100527.75;109061;1254;73095;-54
2023/10/06 10:40:47;;;;;;;1.00;0.20;;;;;;;14.63;100.00;100530.45;109037;1254;65776;-54
2023/10/06 10:43:15;;;;;;;3.40;0.20;;;;;;;14.60;100.00;100538.78;108950;1254;73145;-53
2023/10/06 10:45:44;;;;;;;3.00;0.20;;;;;;;14.55;100.00;100536.48;106907;1254;60626;-51
2023/10/06 10:48:15;;;;;;;0.40;0.20;;;;;;;14.51;100.00;100526.93;104891;1253;60546;-52
2023/10/06 10:50:59;;;;;;;3.10;0.30;;;;;;;14.49;100.00;100521.47;105822;1255;73783;-49
2023/10/06 10:53:31;;;;;;;0.40;0.20;;;;;;;14.50;100.00;100520.66;106379;1255;67335;-51
2023/10/06 10:55:58;;;;;;;1.60;0.10;;;;;;;14.54;100.00;100525.16;104924;1257;72788;-55
2023/10/06 10:58:44;;;;;;;0.60;0.10;;;;;;;14.56;100.00;100525.58;105672;1254;61559;-55
2023/10/06 11:01:36;;;;;;;3.30;0.20;;;;;;;14.55;100.00;100521.33;104939;1254;60498;-53
2023/10/06 11:04:29;;;;;;;1.50;0.20;;;;;;;14.55;100.00;100522.77;109034;1253;72746;-51
2023/10/06 11:07:01;;;;;;;4.40;0.30;;;;;;;14.58;100.00;100527.13;108839;1253;67101;-54
2023/10/06 11:09:29;;;;;;;0.40;0.20;;;;;;;14.61;100.00;100520.07;108930;1254;77088;-53
2023/10/06 11:11:58;;;;;;;5.20;0.30;;;;;;;14.64;100.00;100513.41;108856;1254;58783;-53
2023/10/06 11:14:46;;;;;;;0.20;0.20;;;;;;;14.66;100.00;100519.27;108972;1254;60501;-53
2023/10/06 11:17:14;;;;;;;5.30;0.40;;;;;;;14.69;100.00;100511.35;108888;1253;74864;-53
2023/10/06 11:19:41;;;;;;;1.10;0.30;;;;;;;14.75;100.00;100510.66;109028;1254;65741;-54
2023/10/06 11:22:09;;;;;;;2.50;0.30;;;;;;;14.82;100.00;100515.73;108749;1253;73404;-54
2023/10/06 11:24:37;;;;;;;0.80;0.20;;;;;;;14.87;100.00;100526.64;108963;1253;60005;-53
2023/10/06 11:27:22;;;;;;;2.90;0.20;;;;;;;14.90;100.00;100525.20;109044;1253;58861;-53
2023/10/06 11:29:54;;;;;;;5.30;0.20;;;;;;;14.91;100.00;100526.80;105121;1254;72985;-53
2023/10/06 11:32:22;;;;;;;3.40;0.30;;;;;;;14.89;100.00;100527.24;108981;1253;66280;-54